VMMC/MFM METAR and TAF weather

Enter ICAO airport designator
Station Type Date Time Source
VMMC METAR 2019/12/07 07:30 UTC NOAA

VMMC 070730Z 36015KT CAVOK 19/04 Q1022 NOSIG


Station Type Date Time Source
VMMC Decoded METAR 2019/12/07 07:30 UTC NOAA

Taipa, Macau (VMMC) 22-10N 113-34E
Dec 07, 2019 - 02:30 AM EST / 2019.12.07 0730 UTC
Wind: from the N (360 degrees) at 17 MPH (15 KT):0
Visibility: greater than 7 mile(s):0
Temperature: 66 F (19 C)
Dew Point: 39 F (4 C)
Relative Humidity: 37%
Pressure (altimeter): 30.18 in. Hg (1022 hPa)
ob: VMMC 070730Z 36015KT CAVOK 19/04 Q1022 NOSIG
cycle: 7

Station Type Date Time Source
VMMC TAF 2019/12/07 06:21 UTC NOAA

TAF VMMC 070502Z 0706/0812 02015KT CAVOK
TEMPO 0808/0812 11008KT

Example: see airport list